Time;durP1;ratioP1;P1;durP2;ratioP2;P2;SDS_P1;SDS_P2;PMS_P1;PMS_P2;Temp;Humidity;BMP_temperature;BMP_pressure;BME280_temperature;BME280_humidity;BME280_pressure;Samples;Min_cycle;Max_cycle;Signal;HPM_P1;HPM_P2
2022/07/26 00:00:27;;;;;;;5.40;1.92;;;22.50;77.80;;;;;;5077970;28;20094;-73
2022/07/26 00:02:53;;;;;;;2.92;1.50;;;22.50;77.80;;;;;;5078522;28;20143;-73
2022/07/26 00:05:18;;;;;;;3.10;1.55;;;22.50;77.80;;;;;;5071696;28;20024;-74
2022/07/26 00:07:44;;;;;;;2.28;1.55;;;22.60;77.90;;;;;;5081533;28;20039;-72
2022/07/26 00:10:11;;;;;;;3.50;2.00;;;22.60;77.60;;;;;;5081250;28;20028;-73
2022/07/26 00:12:37;;;;;;;7.57;1.80;;;22.70;77.70;;;;;;5076367;28;20031;-74
2022/07/26 00:15:05;;;;;;;2.60;1.67;;;22.60;77.90;;;;;;5081544;28;20031;-73
2022/07/26 00:17:31;;;;;;;4.32;1.17;;;22.70;77.90;;;;;;5080435;28;20051;-72
2022/07/26 00:19:56;;;;;;;2.92;1.40;;;22.60;78.10;;;;;;5075122;28;20101;-72
2022/07/26 00:22:34;;;;;;;3.65;1.20;;;22.60;78.30;;;;;;5077727;28;20052;-72
2022/07/26 00:25:02;;;;;;;2.00;1.35;;;22.60;78.30;;;;;;5060965;28;20086;-73
2022/07/26 00:27:28;;;;;;;1.77;1.08;;;22.60;78.50;;;;;;5078315;28;20089;-72
2022/07/26 00:29:54;;;;;;;3.03;1.30;;;22.60;78.70;;;;;;5077476;28;20032;-72
2022/07/26 00:32:19;;;;;;;4.30;1.73;;;22.60;78.70;;;;;;5081084;28;20093;-73
2022/07/26 00:34:45;;;;;;;4.00;1.23;;;22.60;78.80;;;;;;5076206;28;20063;-73
2022/07/26 00:37:10;;;;;;;2.35;1.27;;;22.60;79.10;;;;;;5070309;28;20369;-73
2022/07/26 00:39:36;;;;;;;4.35;1.35;;;22.60;78.90;;;;;;5078794;28;20024;-74
2022/07/26 00:42:02;;;;;;;6.40;1.70;;;22.70;78.80;;;;;;5064940;28;20032;-73
2022/07/26 00:44:41;;;;;;;3.35;1.33;;;22.70;78.80;;;;;;5070595;28;20036;-72
2022/07/26 00:47:07;;;;;;;3.60;1.50;;;22.70;78.80;;;;;;5081411;28;20101;-73
2022/07/26 00:49:33;;;;;;;5.38;1.60;;;22.70;78.80;;;;;;5085816;28;20461;-73
2022/07/26 00:51:58;;;;;;;2.60;1.50;;;22.80;78.90;;;;;;5087865;28;20040;-72
2022/07/26 00:54:24;;;;;;;1.85;1.30;;;22.70;78.90;;;;;;5082243;28;20472;-72
2022/07/26 00:56:51;;;;;;;3.00;1.40;;;22.80;79.30;;;;;;5077615;28;20389;-73
2022/07/26 00:59:17;;;;;;;2.05;1.05;;;22.80;79.40;;;;;;5084964;28;20028;-72
2022/07/26 01:01:42;;;;;;;1.55;1.20;;;22.80;79.40;;;;;;5061013;28;20037;-72
2022/07/26 01:04:08;;;;;;;2.65;1.17;;;22.80;79.80;;;;;;5077343;28;20032;-74
2022/07/26 01:06:34;;;;;;;3.30;1.75;;;22.90;79.80;;;;;;5085381;28;20028;-70
2022/07/26 01:09:00;;;;;;;4.53;1.48;;;22.80;79.90;;;;;;5086979;28;20097;-70
2022/07/26 01:11:26;;;;;;;1.77;1.10;;;22.80;80.10;;;;;;5070205;28;20359;-70
2022/07/26 01:13:52;;;;;;;7.25;1.55;;;22.90;80.20;;;;;;5084820;28;20028;-70
2022/07/26 01:16:17;;;;;;;3.90;1.30;;;22.90;80.60;;;;;;5084462;28;20063;-71
2022/07/26 01:18:43;;;;;;;5.05;1.33;;;22.80;82.80;;;;;;5090861;28;20020;-71
2022/07/26 01:21:10;;;;;;;4.07;1.30;;;22.60;85.80;;;;;;5066946;28;20051;-71
2022/07/26 01:23:36;;;;;;;5.07;1.65;;;22.30;87.80;;;;;;5072257;28;20538;-72
2022/07/26 01:26:03;;;;;;;2.03;1.30;;;21.90;90.30;;;;;;5087659;28;20489;-71
2022/07/26 01:28:28;;;;;;;3.25;1.50;;;21.60;91.90;;;;;;5081647;28;20034;-71
2022/07/26 01:30:57;;;;;;;5.60;1.60;;;;;;;;;;5072681;28;20111;-71
2022/07/26 01:33:26;;;;;;;3.42;1.30;;;21.10;95.60;;;;;;5082361;28;20486;-71
2022/07/26 01:35:52;;;;;;;4.97;1.90;;;21.00;97.90;;;;;;5084404;28;20047;-73
2022/07/26 01:38:18;;;;;;;4.45;1.85;;;20.90;99.90;;;;;;5066186;28;20424;-71
2022/07/26 01:40:43;;;;;;;1.83;1.50;;;20.70;99.90;;;;;;5089143;28;20392;-71
2022/07/26 01:43:09;;;;;;;3.92;1.48;;;20.60;99.90;;;;;;5080371;28;20024;-71
2022/07/26 01:45:35;;;;;;;3.38;1.60;;;20.50;99.90;;;;;;5087540;28;20055;-71
2022/07/26 01:48:00;;;;;;;2.58;1.30;;;20.40;99.90;;;;;;5066538;28;20028;-71
2022/07/26 01:50:26;;;;;;;3.38;2.08;;;20.40;99.90;;;;;;5077187;28;20133;-71
2022/07/26 01:52:52;;;;;;;2.13;1.30;;;20.30;99.90;;;;;;5085758;28;20043;-72
2022/07/26 01:55:17;;;;;;;2.90;1.50;;;20.30;99.90;;;;;;5087411;28;20024;-73
2022/07/26 01:57:46;;;;;;;2.72;1.30;;;20.30;99.90;;;;;;5079459;28;20086;-73
2022/07/26 02:00:12;;;;;;;4.63;1.63;;;20.20;99.90;;;;;;5082946;28;20020;-73
2022/07/26 02:02:38;;;;;;;3.10;1.30;;;20.20;99.90;;;;;;5087297;28;20051;-75
2022/07/26 02:05:04;;;;;;;2.58;1.20;;;20.20;99.90;;;;;;5080001;28;20097;-72
2022/07/26 02:07:32;;;;;;;3.45;1.52;;;20.30;99.90;;;;;;5085836;28;20040;-73
2022/07/26 02:09:59;;;;;;;1.77;1.67;;;20.30;99.90;;;;;;5089896;28;20139;-71
2022/07/26 02:12:25;;;;;;;2.97;1.10;;;20.20;99.90;;;;;;5076641;28;20035;-72
2022/07/26 02:14:51;;;;;;;2.53;1.40;;;20.20;99.90;;;;;;5085636;28;20025;-72
2022/07/26 02:17:17;;;;;;;1.50;1.30;;;20.20;99.90;;;;;;5082618;28;20158;-74
2022/07/26 02:19:42;;;;;;;1.23;1.13;;;20.20;99.90;;;;;;5096379;28;20128;-74
2022/07/26 02:22:08;;;;;;;3.25;1.52;;;20.30;99.90;;;;;;5101834;28;20221;-72
2022/07/26 02:24:34;;;;;;;1.38;1.27;;;20.30;99.90;;;;;;5100402;28;20484;-71
2022/07/26 02:27:01;;;;;;;2.60;1.50;;;20.30;99.90;;;;;;5107481;28;20120;-72
2022/07/26 02:29:27;;;;;;;2.92;1.42;;;20.40;99.90;;;;;;5101038;28;20027;-72
2022/07/26 02:31:55;;;;;;;1.65;1.20;;;20.40;99.90;;;;;;5086573;28;20383;-72
2022/07/26 02:34:20;;;;;;;2.50;1.40;;;20.40;99.90;;;;;;5102501;28;20069;-71
2022/07/26 02:36:46;;;;;;;1.33;1.25;;;20.40;99.90;;;;;;5103032;28;20028;-72
2022/07/26 02:39:12;;;;;;;2.75;1.70;;;20.40;99.90;;;;;;5099011;28;20508;-74
2022/07/26 02:41:38;;;;;;;6.47;1.67;;;20.50;99.90;;;;;;5109024;28;20031;-72
2022/07/26 02:44:05;;;;;;;2.90;1.77;;;20.50;99.90;;;;;;5105534;28;20128;-73
2022/07/26 02:46:30;;;;;;;3.50;1.63;;;20.50;99.90;;;;;;5101244;28;20030;-73
2022/07/26 02:48:58;;;;;;;5.43;1.60;;;20.50;99.90;;;;;;5083183;28;20110;-73
2022/07/26 02:51:23;;;;;;;1.98;1.77;;;20.50;99.90;;;;;;5099306;28;20032;-72
2022/07/26 02:53:49;;;;;;;2.95;1.70;;;20.40;99.90;;;;;;5108466;28;20073;-72
2022/07/26 02:56:15;;;;;;;2.05;1.30;;;20.40;99.90;;;;;;5108200;28;20101;-73
2022/07/26 02:58:40;;;;;;;3.35;1.27;;;20.40;99.90;;;;;;5088370;28;20028;-74
2022/07/26 03:01:06;;;;;;;1.65;0.98;;;20.50;99.90;;;;;;5106859;28;20028;-72
2022/07/26 03:03:32;;;;;;;2.50;0.95;;;20.50;99.90;;;;;;5100744;28;20027;-72
2022/07/26 03:05:57;;;;;;;1.20;1.10;;;20.50;99.90;;;;;;5092494;28;20496;-73
2022/07/26 03:08:23;;;;;;;4.30;1.15;;;20.60;99.90;;;;;;5107921;28;20047;-72
2022/07/26 03:10:48;;;;;;;2.28;1.35;;;20.60;99.90;;;;;;5108363;28;20016;-73
2022/07/26 03:13:14;;;;;;;1.38;0.93;;;20.70;99.90;;;;;;5104719;28;20023;-73
2022/07/26 03:15:40;;;;;;;1.55;1.25;;;20.70;99.90;;;;;;5101152;28;20426;-73
2022/07/26 03:18:05;;;;;;;1.35;1.23;;;20.70;99.90;;;;;;5109461;28;20044;-73
2022/07/26 03:20:31;;;;;;;1.75;1.00;;;20.80;99.90;;;;;;5106485;28;20040;-72
2022/07/26 03:22:57;;;;;;;1.42;0.98;;;20.80;99.90;;;;;;5109135;28;20036;-73
2022/07/26 03:25:22;;;;;;;4.03;1.10;;;20.80;99.90;;;;;;5103819;28;20131;-72
2022/07/26 03:27:48;;;;;;;1.80;0.93;;;20.80;99.90;;;;;;5102184;28;20106;-72
2022/07/26 03:30:14;;;;;;;2.88;1.33;;;20.80;99.90;;;;;;5105780;28;20036;-72
2022/07/26 03:32:39;;;;;;;1.88;1.10;;;20.80;99.90;;;;;;5098300;28;20065;-72
2022/07/26 03:35:06;;;;;;;3.67;1.40;;;20.80;99.90;;;;;;5109618;28;20024;-72
2022/07/26 03:37:32;;;;;;;1.48;1.00;;;20.70;99.90;;;;;;5103350;28;20028;-72
2022/07/26 03:39:58;;;;;;;1.45;1.13;;;20.70;99.90;;;;;;5109771;28;20440;-72
2022/07/26 03:42:23;;;;;;;2.38;1.10;;;20.70;99.90;;;;;;5108104;28;20031;-72
2022/07/26 03:44:49;;;;;;;3.10;1.70;;;20.60;99.90;;;;;;5106652;28;20019;-72
2022/07/26 03:47:14;;;;;;;1.30;1.10;;;20.60;99.90;;;;;;5099251;28;20077;-73
2022/07/26 03:49:40;;;;;;;1.75;1.45;;;20.60;99.90;;;;;;5093910;28;20056;-73
2022/07/26 03:52:06;;;;;;;2.25;1.10;;;20.50;99.90;;;;;;5108749;28;20019;-72
2022/07/26 03:54:31;;;;;;;2.22;0.90;;;20.50;99.90;;;;;;5109902;28;20354;-72
2022/07/26 03:56:57;;;;;;;1.35;1.10;;;20.50;99.90;;;;;;5109600;28;20096;-71
2022/07/26 03:59:24;;;;;;;8.57;1.90;;;20.40;99.90;;;;;;5105349;28;20024;-71
2022/07/26 04:01:50;;;;;;;2.92;1.40;;;20.50;99.90;;;;;;5112045;28;20028;-72
2022/07/26 04:04:17;;;;;;;2.03;1.10;;;20.50;99.90;;;;;;5102678;28;20393;-73
2022/07/26 04:06:44;;;;;;;1.52;1.10;;;20.50;99.90;;;;;;5102954;28;20115;-72
2022/07/26 04:09:10;;;;;;;4.43;1.70;;;20.40;99.90;;;;;;5107545;28;20476;-71
2022/07/26 04:11:36;;;;;;;1.75;1.45;;;20.40;99.90;;;;;;5092726;28;20028;-72
2022/07/26 04:14:01;;;;;;;2.55;1.13;;;20.30;99.90;;;;;;5105900;28;20364;-71
2022/07/26 04:16:27;;;;;;;1.00;1.00;;;20.30;99.90;;;;;;5107726;28;20047;-73
2022/07/26 04:18:53;;;;;;;1.20;1.10;;;20.20;99.90;;;;;;5105669;28;20120;-73
2022/07/26 04:21:19;;;;;;;2.75;1.30;;;20.20;99.90;;;;;;5104369;28;20161;-74
2022/07/26 04:23:45;;;;;;;3.75;1.55;;;20.20;99.90;;;;;;5101211;28;20028;-74
2022/07/26 04:26:12;;;;;;;2.88;1.60;;;20.10;99.90;;;;;;5107169;28;20039;-73
2022/07/26 04:28:39;;;;;;;1.92;1.63;;;20.10;99.90;;;;;;5103067;28;20036;-73
2022/07/26 04:31:05;;;;;;;2.17;1.48;;;20.20;99.90;;;;;;5112227;28;20023;-72
2022/07/26 04:33:31;;;;;;;4.57;1.40;;;20.20;99.90;;;;;;5104675;28;20048;-73
2022/07/26 04:35:58;;;;;;;2.42;1.35;;;20.20;99.90;;;;;;5109899;28;20028;-72
2022/07/26 04:38:23;;;;;;;1.40;1.30;;;20.20;99.90;;;;;;5098076;28;20503;-72
2022/07/26 04:40:50;;;;;;;3.90;1.58;;;20.20;99.90;;;;;;5107859;27;20028;-73
2022/07/26 04:43:17;;;;;;;1.95;1.52;;;20.20;99.90;;;;;;5092648;28;20035;-74
2022/07/26 04:45:44;;;;;;;1.65;1.30;;;20.20;99.90;;;;;;5091475;28;20086;-73
2022/07/26 04:48:10;;;;;;;2.22;1.70;;;20.20;99.90;;;;;;5092790;28;20058;-71
2022/07/26 04:50:35;;;;;;;3.25;1.70;;;20.20;99.90;;;;;;5091426;28;20059;-72
2022/07/26 04:53:01;;;;;;;3.25;1.50;;;20.20;99.90;;;;;;5094445;28;20035;-71
2022/07/26 04:55:27;;;;;;;2.42;1.23;;;20.20;99.90;;;;;;5092152;28;20024;-71
2022/07/26 04:57:53;;;;;;;2.25;1.70;;;20.30;99.90;;;;;;5085455;28;20044;-71
2022/07/26 05:00:22;;;;;;;1.65;1.50;;;20.30;99.90;;;;;;5106381;28;20019;-83
2022/07/26 05:02:49;;;;;;;4.03;1.40;;;20.40;99.90;;;;;;5100675;28;20058;-76
2022/07/26 05:05:15;;;;;;;4.72;1.52;;;20.50;99.90;;;;;;5106124;28;20028;-83
2022/07/26 05:07:49;;;;;;;3.28;1.80;;;20.50;99.90;;;;;;5103041;28;20038;-81
2022/07/26 05:10:16;;;;;;;1.80;1.70;;;20.50;99.90;;;;;;5109613;28;20023;-83
2022/07/26 05:12:41;;;;;;;1.88;1.40;;;20.50;99.90;;;;;;5097794;28;20031;-83
2022/07/26 05:15:08;;;;;;;2.53;2.13;;;20.60;99.90;;;;;;5101383;28;20028;-80
2022/07/26 05:17:36;;;;;;;3.42;1.75;;;20.70;99.90;;;;;;5098874;28;20032;-80
2022/07/26 05:20:03;;;;;;;2.05;1.48;;;20.80;99.90;;;;;;5105003;28;20097;-77
2022/07/26 05:22:28;;;;;;;2.72;1.67;;;20.90;99.90;;;;;;5103633;28;20076;-83
2022/07/26 05:24:54;;;;;;;3.85;2.03;;;21.00;99.90;;;;;;5106701;28;20039;-84
2022/07/26 05:27:19;;;;;;;1.92;1.73;;;21.10;99.90;;;;;;5103357;28;20031;-82
2022/07/26 05:29:45;;;;;;;3.42;1.63;;;21.20;99.90;;;;;;5089626;28;20024;-78
2022/07/26 05:32:11;;;;;;;4.03;1.95;;;21.40;99.90;;;;;;5100399;28;20217;-75
2022/07/26 05:34:36;;;;;;;4.07;1.83;;;21.60;99.90;;;;;;5103314;28;20140;-78
2022/07/26 05:37:02;;;;;;;5.15;1.85;;;21.80;99.90;;;;;;5107437;28;20040;-76
2022/07/26 05:39:27;;;;;;;6.38;2.00;;;21.90;99.90;;;;;;5107207;28;20032;-75
2022/07/26 05:41:53;;;;;;;2.83;2.00;;;22.10;99.90;;;;;;5107531;28;20025;-76
2022/07/26 05:44:19;;;;;;;2.80;1.48;;;22.20;99.90;;;;;;5101860;28;20028;-71
2022/07/26 05:46:44;;;;;;;3.22;1.85;;;22.30;99.90;;;;;;5086654;28;20430;-74
2022/07/26 05:49:10;;;;;;;3.40;2.03;;;22.30;99.90;;;;;;5105251;28;20023;-73
2022/07/26 05:51:35;;;;;;;4.93;2.13;;;22.30;99.90;;;;;;5092630;28;20035;-72
2022/07/26 05:54:01;;;;;;;2.83;1.58;;;22.20;99.90;;;;;;5101934;28;20024;-75
2022/07/26 05:56:27;;;;;;;2.60;1.92;;;22.00;99.90;;;;;;5109288;28;20361;-74
2022/07/26 05:58:52;;;;;;;3.60;1.70;;;21.80;99.90;;;;;;5096173;28;20034;-73
2022/07/26 06:01:18;;;;;;;3.70;1.95;;;21.80;99.90;;;;;;5097954;28;20110;-74
2022/07/26 06:03:43;;;;;;;1.95;1.80;;;21.60;99.90;;;;;;5092044;28;20063;-75
2022/07/26 06:06:10;;;;;;;2.65;1.90;;;21.60;99.90;;;;;;5090962;28;20060;-75
2022/07/26 06:08:36;;;;;;;2.28;2.08;;;21.60;99.90;;;;;;5103108;28;20039;-76
2022/07/26 06:11:02;;;;;;;7.32;1.85;;;21.70;99.90;;;;;;5109115;28;20028;-75
2022/07/26 06:13:28;;;;;;;4.47;1.98;;;21.70;99.90;;;;;;5100697;28;20530;-73
2022/07/26 06:15:53;;;;;;;3.55;1.85;;;21.80;99.90;;;;;;5106744;28;20040;-74
2022/07/26 06:18:19;;;;;;;3.55;1.85;;;21.80;99.90;;;;;;5087490;28;20377;-72
2022/07/26 06:20:46;;;;;;;2.53;1.77;;;21.80;99.90;;;;;;5107293;28;20045;-73
2022/07/26 06:23:13;;;;;;;3.42;2.00;;;21.80;99.90;;;;;;5086802;28;20460;-75
2022/07/26 06:25:39;;;;;;;3.65;1.77;;;21.90;99.90;;;;;;5085764;28;20028;-74
2022/07/26 06:28:09;;;;;;;14.13;2.17;;;21.90;99.90;;;;;;5084669;28;20411;-74
2022/07/26 06:30:36;;;;;;;2.83;1.38;;;22.00;99.20;;;;;;5099690;28;20031;-76
2022/07/26 06:33:02;;;;;;;6.65;1.73;;;22.10;99.00;;;;;;5094321;28;20047;-74
2022/07/26 06:35:29;;;;;;;5.72;1.63;;;22.20;98.90;;;;;;5100012;28;20525;-75
2022/07/26 06:37:56;;;;;;;8.77;1.70;;;22.20;98.60;;;;;;5097804;28;20088;-73
2022/07/26 06:40:22;;;;;;;6.28;1.67;;;22.30;97.90;;;;;;5110536;28;20383;-75
2022/07/26 06:42:47;;;;;;;6.05;1.33;;;22.30;97.40;;;;;;5102750;28;20079;-75
2022/07/26 06:45:13;;;;;;;4.13;1.27;;;22.30;97.20;;;;;;5104439;28;20511;-76
2022/07/26 06:47:39;;;;;;;8.05;1.60;;;22.40;96.40;;;;;;5104294;28;20036;-74
2022/07/26 06:50:05;;;;;;;7.93;1.48;;;22.40;96.40;;;;;;5098046;28;20062;-76
2022/07/26 06:52:31;;;;;;;7.95;1.52;;;22.50;95.90;;;;;;5098074;28;20024;-76
2022/07/26 06:55:07;;;;;;;3.78;1.50;;;22.60;95.80;;;;;;5110364;28;20024;-77
2022/07/26 06:57:34;;;;;;;9.18;1.50;;;22.70;95.50;;;;;;5094672;28;20063;-76
2022/07/26 07:00:00;;;;;;;6.90;1.23;;;22.80;94.60;;;;;;5105585;28;20028;-76
2022/07/26 07:02:26;;;;;;;5.05;1.52;;;23.00;93.40;;;;;;5093963;28;20030;-76
2022/07/26 07:04:51;;;;;;;3.85;1.23;;;23.00;93.20;;;;;;5101461;28;20024;-74
2022/07/26 07:07:17;;;;;;;3.53;1.30;;;22.90;93.10;;;;;;5097517;28;20103;-76
2022/07/26 07:09:43;;;;;;;1.98;1.20;;;22.80;92.80;;;;;;5104384;28;20465;-77
2022/07/26 07:12:08;;;;;;;4.43;1.00;;;22.70;92.60;;;;;;5092859;28;20040;-77
2022/07/26 07:14:34;;;;;;;6.50;1.45;;;22.60;92.20;;;;;;5101201;28;20028;-77
2022/07/26 07:17:00;;;;;;;2.55;1.25;;;22.60;92.20;;;;;;5092252;28;20036;-77
2022/07/26 07:19:26;;;;;;;2.30;1.00;;;22.70;92.20;;;;;;5096288;28;20036;-76
2022/07/26 07:21:52;;;;;;;4.35;1.10;;;22.80;92.40;;;;;;5100384;28;20035;-74
2022/07/26 07:24:18;;;;;;;3.13;1.20;;;22.90;92.10;;;;;;5099953;28;20161;-76
2022/07/26 07:26:44;;;;;;;2.55;1.08;;;23.10;91.60;;;;;;5090758;28;20108;-75
2022/07/26 07:29:13;;;;;;;2.63;1.13;;;23.20;91.00;;;;;;5091620;28;20043;-75
2022/07/26 07:31:39;;;;;;;5.90;1.30;;;23.30;90.90;;;;;;5103310;28;20020;-75
2022/07/26 07:34:05;;;;;;;2.22;1.10;;;23.40;90.90;;;;;;5099915;28;20028;-75
2022/07/26 07:36:31;;;;;;;1.48;0.93;;;23.40;90.50;;;;;;5095098;28;20378;-75
2022/07/26 07:38:56;;;;;;;8.05;1.15;;;23.50;90.40;;;;;;5098439;28;20069;-75
2022/07/26 07:41:22;;;;;;;5.22;1.00;;;23.60;90.20;;;;;;5100664;28;20028;-76
2022/07/26 07:43:47;;;;;;;4.43;1.20;;;23.60;89.60;;;;;;5097453;28;20028;-75
2022/07/26 07:46:13;;;;;;;4.05;1.08;;;23.70;88.60;;;;;;5086323;28;20027;-75
2022/07/26 07:48:40;;;;;;;15.90;2.22;;;23.90;88.20;;;;;;5087405;28;20032;-76
2022/07/26 07:51:06;;;;;;;5.38;1.30;;;23.90;87.30;;;;;;5095655;28;20012;-76
2022/07/26 07:53:32;;;;;;;1.77;1.10;;;24.00;86.70;;;;;;5093061;28;20032;-75
2022/07/26 07:55:58;;;;;;;5.57;1.30;;;24.00;86.90;;;;;;5103102;28;20463;-76
2022/07/26 07:58:24;;;;;;;3.33;1.10;;;24.10;86.00;;;;;;5097917;28;20040;-74
2022/07/26 08:00:50;;;;;;;2.45;1.38;;;24.20;84.80;;;;;;5091043;28;20068;-70
2022/07/26 08:03:15;;;;;;;1.48;0.90;;;24.20;84.30;;;;;;5097121;28;20051;-70
2022/07/26 08:05:41;;;;;;;16.50;2.60;;;24.30;83.80;;;;;;5091332;28;20027;-69
2022/07/26 08:08:07;;;;;;;79.47;7.63;;;24.50;83.90;;;;;;5094367;28;20086;-69
2022/07/26 08:10:33;;;;;;;10.15;1.45;;;24.70;82.60;;;;;;5093093;28;20035;-70
2022/07/26 08:12:58;;;;;;;9.77;1.42;;;24.80;81.90;;;;;;5086440;28;20029;-69
2022/07/26 08:15:26;;;;;;;2.40;1.25;;;24.90;80.90;;;;;;5066746;28;20032;-69
2022/07/26 08:17:52;;;;;;;6.82;0.90;;;24.90;80.40;;;;;;5093347;28;20036;-69
2022/07/26 08:20:17;;;;;;;4.95;1.42;;;25.00;80.00;;;;;;5094464;28;20048;-69
2022/07/26 08:22:43;;;;;;;7.13;1.15;;;25.10;79.00;;;;;;5096806;28;20027;-69
2022/07/26 08:25:09;;;;;;;3.38;1.20;;;25.10;78.60;;;;;;5096040;28;20058;-69
2022/07/26 08:27:35;;;;;;;5.05;1.40;;;25.10;78.60;;;;;;5098225;28;20383;-69
2022/07/26 08:30:01;;;;;;;6.82;1.05;;;25.00;78.50;;;;;;5091049;28;20107;-69
2022/07/26 08:32:26;;;;;;;1.58;1.05;;;24.90;78.30;;;;;;5087473;28;20042;-71
2022/07/26 08:34:52;;;;;;;1.67;0.90;;;24.90;78.90;;;;;;5092937;28;20114;-71
2022/07/26 08:37:18;;;;;;;3.25;1.17;;;24.80;78.40;;;;;;5078295;28;20032;-70
2022/07/26 08:39:46;;;;;;;3.75;1.10;;;24.70;78.80;;;;;;5083826;28;20025;-70
2022/07/26 08:42:16;;;;;;;1.35;1.15;;;24.60;78.70;;;;;;5091878;28;20024;-70
2022/07/26 08:44:45;;;;;;;;;;;24.60;78.80;;;;;;5092241;28;20032;-70
2022/07/26 08:47:16;;;;;;;4.45;1.38;;;24.80;78.20;;;;;;5093869;28;19908;-70
2022/07/26 08:49:42;;;;;;;3.85;1.75;;;24.90;76.80;;;;;;5107512;28;20052;-70
2022/07/26 08:52:10;;;;;;;2.10;1.00;;;24.90;76.60;;;;;;5097233;28;20030;-70
2022/07/26 08:54:36;;;;;;;2.47;0.90;;;24.80;76.30;;;;;;5099056;28;20526;-70
2022/07/26 08:57:01;;;;;;;3.83;0.93;;;24.70;76.00;;;;;;5094680;28;20032;-70
2022/07/26 08:59:29;;;;;;;3.65;0.88;;;24.70;76.20;;;;;;5087678;28;20476;-70
2022/07/26 09:01:59;;;;;;;2.05;0.90;;;24.60;76.00;;;;;;5098848;28;20032;-71
2022/07/26 09:04:28;;;;;;;3.85;1.15;;;24.60;76.40;;;;;;5098558;28;20112;-70
2022/07/26 09:06:57;;;;;;;3.50;0.90;;;24.60;76.50;;;;;;5097743;28;20115;-71
2022/07/26 09:09:23;;;;;;;3.05;1.00;;;24.70;76.10;;;;;;5099934;28;20066;-70
2022/07/26 09:11:49;;;;;;;5.47;1.25;;;25.00;75.30;;;;;;5095780;28;20055;-71
2022/07/26 09:14:14;;;;;;;2.80;1.05;;;25.00;74.40;;;;;;5093131;28;20035;-70
2022/07/26 09:16:40;;;;;;;2.30;1.00;;;25.00;74.40;;;;;;5089796;28;20032;-70
2022/07/26 09:19:16;;;;;;;5.47;0.73;;;25.00;74.60;;;;;;5095062;28;20531;-70
2022/07/26 09:21:42;;;;;;;12.23;1.08;;;25.00;74.50;;;;;;5093352;28;20164;-70
2022/07/26 09:24:09;;;;;;;3.05;1.17;;;25.00;74.80;;;;;;5095153;28;20490;-70
2022/07/26 09:26:35;;;;;;;14.45;1.52;;;25.10;73.80;;;;;;5096446;28;20024;-70
2022/07/26 09:29:11;;;;;;;2.92;1.10;;;25.20;73.70;;;;;;5090498;28;20382;-70
2022/07/26 09:31:38;;;;;;;9.88;1.10;;;25.60;73.40;;;;;;5094618;28;20028;-70
2022/07/26 09:34:05;;;;;;;6.90;0.85;;;25.90;73.40;;;;;;5088444;28;20024;-70
2022/07/26 09:36:31;;;;;;;7.63;1.05;;;26.00;72.30;;;;;;5084444;28;20393;-69
2022/07/26 09:39:01;;;;;;;4.93;0.98;;;26.10;71.70;;;;;;5090438;28;20077;-69
2022/07/26 09:41:30;;;;;;;8.30;1.00;;;26.20;72.10;;;;;;5094378;28;20039;-71
2022/07/26 09:44:00;;;;;;;6.80;1.30;;;26.20;71.80;;;;;;5089382;28;20032;-70
2022/07/26 09:46:27;;;;;;;;;;;26.00;72.20;;;;;;5079723;28;20472;-71
2022/07/26 09:48:54;;;;;;;7.47;1.13;;;25.80;72.10;;;;;;5088776;28;19912;-71
2022/07/26 09:51:47;;;;;;;3.65;1.05;;;25.80;71.80;;;;;;5091524;28;20115;-72
2022/07/26 09:54:28;;;;;;;3.33;1.20;;;25.80;72.20;;;;;;5082323;28;20039;-69
2022/07/26 09:56:54;;;;;;;5.47;1.10;;;25.90;71.90;;;;;;5089952;28;20044;-70
2022/07/26 09:59:21;;;;;;;3.67;1.00;;;25.90;72.20;;;;;;5068797;28;20032;-71
2022/07/26 10:01:49;;;;;;;4.40;0.75;;;25.70;72.10;;;;;;5087402;28;20035;-70
2022/07/26 10:04:15;;;;;;;2.30;0.90;;;25.60;72.00;;;;;;5090149;28;20016;-71
2022/07/26 10:06:41;;;;;;;6.32;1.00;;;25.70;71.90;;;;;;5089857;28;20481;-70
2022/07/26 10:09:07;;;;;;;2.00;0.73;;;25.70;72.30;;;;;;5083799;28;20484;-71
2022/07/26 10:12:03;;;;;;;1.65;0.70;;;25.60;72.80;;;;;;5092960;28;20129;-70
2022/07/26 10:14:32;;;;;;;1.58;0.90;;;25.40;72.10;;;;;;5094080;28;20024;-70
2022/07/26 10:17:21;;;;;;;5.32;1.10;;;25.30;72.70;;;;;;5089163;28;20039;-70
2022/07/26 10:19:46;;;;;;;7.70;1.77;;;25.30;72.80;;;;;;5095740;28;20044;-70
2022/07/26 10:22:25;;;;;;;3.65;1.20;;;25.40;73.10;;;;;;5088496;28;20035;-69
2022/07/26 10:24:52;;;;;;;6.88;1.30;;;25.50;72.70;;;;;;5080981;28;20029;-70
2022/07/26 10:27:42;;;;;;;5.72;1.02;;;25.40;72.90;;;;;;5095023;28;20026;-69
2022/07/26 10:30:20;;;;;;;3.85;0.82;;;25.50;73.00;;;;;;5084661;28;20481;-69
2022/07/26 10:33:16;;;;;;;3.97;0.88;;;25.50;72.60;;;;;;5094771;28;20035;-69
2022/07/26 10:35:42;;;;;;;4.40;1.05;;;25.70;73.20;;;;;;5085303;28;20119;-69
2022/07/26 10:38:10;;;;;;;3.50;0.98;;;25.90;72.60;;;;;;5093698;28;20538;-70
2022/07/26 10:40:37;;;;;;;3.13;1.00;;;26.10;71.70;;;;;;5090226;28;20101;-70
2022/07/26 10:43:10;;;;;;;4.13;1.50;;;26.10;72.60;;;;;;5092980;28;20056;-69
2022/07/26 10:45:36;;;;;;;2.33;1.00;;;26.30;72.70;;;;;;5087368;28;20024;-70
2022/07/26 10:48:17;;;;;;;3.03;0.90;;;26.40;71.50;;;;;;5080824;28;20043;-69
2022/07/26 10:50:48;;;;;;;2.53;0.70;;;26.70;70.60;;;;;;5083289;28;20032;-69
2022/07/26 10:53:20;;;;;;;4.60;1.38;;;26.80;70.10;;;;;;5088682;28;20159;-69
2022/07/26 10:55:56;;;;;;;3.15;0.88;;;26.70;69.50;;;;;;5083501;28;20036;-70
2022/07/26 10:58:23;;;;;;;1.98;1.00;;;26.60;70.30;;;;;;5092114;28;20085;-70
2022/07/26 11:01:00;;;;;;;2.47;0.98;;;26.30;70.10;;;;;;5091576;28;20523;-70
2022/07/26 11:03:40;;;;;;;5.88;1.48;;;26.00;71.20;;;;;;5092894;28;20028;-70
2022/07/26 11:06:14;;;;;;;0.97;0.83;;;26.00;70.30;;;;;;5077836;28;20094;-70
2022/07/26 11:08:40;;;;;;;3.45;0.93;;;26.10;70.40;;;;;;5082613;28;20274;-69
2022/07/26 11:11:06;;;;;;;3.38;0.70;;;26.30;70.10;;;;;;5094271;28;20085;-69
2022/07/26 11:13:32;;;;;;;1.83;0.95;;;26.50;69.20;;;;;;5092220;28;20473;-68
2022/07/26 11:16:01;;;;;;;1.35;0.85;;;26.40;69.30;;;;;;5083726;28;20515;-69
2022/07/26 11:18:34;;;;;;;3.65;0.85;;;26.50;69.60;;;;;;5095721;28;20376;-70
2022/07/26 11:21:16;;;;;;;3.05;0.90;;;26.60;68.50;;;;;;5097619;28;20050;-69
2022/07/26 11:23:44;;;;;;;1.77;0.80;;;26.30;68.70;;;;;;5089688;28;20469;-69
2022/07/26 11:26:14;;;;;;;2.22;0.85;;;26.10;68.90;;;;;;5107196;27;20028;-70
2022/07/26 11:28:51;;;;;;;1.35;0.80;;;26.00;69.70;;;;;;5087250;28;20115;-70
2022/07/26 11:31:18;;;;;;;2.67;1.08;;;26.10;69.00;;;;;;5091759;28;20035;-70
2022/07/26 11:33:47;;;;;;;1.92;0.93;;;26.30;68.50;;;;;;5095051;28;20492;-70
2022/07/26 11:36:13;;;;;;;1.13;0.88;;;26.50;68.80;;;;;;5088566;28;20110;-70
2022/07/26 11:38:46;;;;;;;3.05;0.90;;;26.70;67.90;;;;;;5094682;28;20111;-70
2022/07/26 11:41:13;;;;;;;1.92;0.98;;;26.50;67.80;;;;;;5089454;28;20051;-70
2022/07/26 11:43:40;;;;;;;4.75;1.08;;;26.30;68.20;;;;;;5085654;28;20408;-70
2022/07/26 11:46:06;;;;;;;0.88;0.60;;;26.20;67.60;;;;;;5086188;28;20071;-70
2022/07/26 11:48:32;;;;;;;1.58;0.68;;;26.20;67.30;;;;;;5091370;28;20052;-70
2022/07/26 11:51:09;;;;;;;2.88;0.90;;;26.20;67.60;;;;;;5094570;28;20024;-70
2022/07/26 11:53:36;;;;;;;4.35;1.38;;;26.60;67.10;;;;;;5093408;28;20048;-70
2022/07/26 11:56:18;;;;;;;5.30;0.90;;;27.00;66.10;;;;;;5095224;28;20085;-70
2022/07/26 11:58:46;;;;;;;4.68;1.25;;;27.50;64.90;;;;;;5090390;28;20051;-69
2022/07/26 12:01:15;;;;;;;3.47;1.00;;;27.50;64.90;;;;;;5094655;28;20287;-69
2022/07/26 12:03:44;;;;;;;1.63;1.08;;;27.20;64.60;;;;;;5084965;28;20469;-69
2022/07/26 12:06:17;;;;;;;1.77;1.00;;;26.80;64.80;;;;;;5089619;28;20028;-69
2022/07/26 12:08:43;;;;;;;2.15;0.80;;;26.40;65.80;;;;;;5093593;28;20028;-69
2022/07/26 12:11:10;;;;;;;3.75;0.80;;;26.30;66.40;;;;;;5094180;28;20031;-70
2022/07/26 12:13:48;;;;;;;1.20;0.88;;;26.60;65.50;;;;;;5087967;28;20067;-69
2022/07/26 12:16:32;;;;;;;2.17;1.35;;;27.20;64.90;;;;;;5091686;28;20076;-69
2022/07/26 12:18:58;;;;;;;0.82;0.80;;;27.70;63.90;;;;;;5094889;28;20514;-69
2022/07/26 12:21:37;;;;;;;0.88;0.70;;;27.70;63.00;;;;;;5096554;28;20024;-69
2022/07/26 12:24:04;;;;;;;1.35;1.13;;;28.00;63.10;;;;;;5089879;28;20044;-69
2022/07/26 12:26:30;;;;;;;1.33;0.68;;;27.90;61.80;;;;;;5092275;28;20036;-68
2022/07/26 12:28:57;;;;;;;2.90;0.70;;;27.50;62.30;;;;;;5091696;28;20028;-71
2022/07/26 12:31:30;;;;;;;2.33;0.75;;;27.50;62.60;;;;;;5099196;28;20057;-70
2022/07/26 12:33:56;;;;;;;1.98;0.82;;;27.60;62.20;;;;;;5095243;28;20035;-71
2022/07/26 12:36:23;;;;;;;1.08;0.80;;;27.50;62.70;;;;;;5097756;28;20024;-69
2022/07/26 12:38:51;;;;;;;3.35;0.90;;;27.30;62.40;;;;;;5095456;28;20438;-69
2022/07/26 12:41:35;;;;;;;1.10;0.50;;;27.00;62.70;;;;;;5090208;28;20020;-70
2022/07/26 12:44:00;;;;;;;1.00;0.75;;;27.10;62.80;;;;;;5091480;28;20047;-69
2022/07/26 12:46:26;;;;;;;2.40;0.93;;;27.60;62.10;;;;;;5092569;28;20055;-69
2022/07/26 12:48:52;;;;;;;1.55;0.85;;;28.00;61.60;;;;;;5087972;28;20055;-71